createdAt,value
2023-03-13T00:00:19.902Z,99659.75
2023-03-13T00:05:21.558Z,99639.25
2023-03-13T00:10:23.184Z,99640.41
2023-03-13T00:15:24.710Z,99630.63
2023-03-13T00:20:26.654Z,99628.44
2023-03-13T00:25:30.432Z,99628.44
2023-03-13T00:30:32.048Z,99617.53
2023-03-13T00:35:33.731Z,99604.50
2023-03-13T00:40:35.277Z,99591.47
2023-03-13T00:45:36.780Z,99581.13
2023-03-13T00:50:39.280Z,99556.28
2023-03-13T00:55:51.566Z,99545.69
2023-03-13T01:00:54.057Z,99534.53
2023-03-13T01:06:00.659Z,99538.59
2023-03-13T01:11:06.579Z,99518.31
2023-03-13T01:16:14.764Z,99512.31
2023-03-13T01:21:19.174Z,99505.69
2023-03-13T01:26:21.799Z,99493.97
2023-03-13T01:31:26.920Z,99503.34
2023-03-13T01:36:29.661Z,99497.06
2023-03-13T01:41:31.747Z,99490.03
2023-03-13T01:46:33.510Z,99479.09
2023-03-13T01:51:47.470Z,99488.69
2023-03-13T01:57:00.714Z,99512.19
2023-03-13T02:02:04.605Z,99520.50
2023-03-13T02:07:12.547Z,99528.09
2023-03-13T02:12:40.144Z,99535.03
2023-03-13T02:17:43.043Z,99534.56
2023-03-13T02:22:53.728Z,99536.16
2023-03-13T02:28:00.173Z,99525.00
2023-03-13T02:33:03.524Z,99519.03
2023-03-13T02:38:10.272Z,99517.88
2023-03-13T02:43:21.221Z,99506.59
2023-03-13T02:48:31.639Z,99496.81
2023-03-13T02:53:33.555Z,99490.59
2023-03-13T02:58:49.322Z,99466.81
2023-03-13T03:03:52.347Z,99476.19
2023-03-13T03:08:53.941Z,99462.22
2023-03-13T03:13:56.617Z,99460.47
2023-03-13T03:18:59.286Z,99461.31
2023-03-13T03:24:01.401Z,99459.41
2023-03-13T03:29:03.489Z,99467.38
2023-03-13T03:34:07.895Z,99464.34
2023-03-13T03:39:09.861Z,99461.69
2023-03-13T03:44:11.466Z,99457.72
2023-03-13T03:49:25.537Z,99434.53
2023-03-13T03:54:27.464Z,99448.03
2023-03-13T03:59:29.767Z,99424.75
2023-03-13T04:04:33.421Z,99423.34
2023-03-13T04:09:46.878Z,99412.66
2023-03-13T04:14:56.441Z,99411.28
2023-03-13T04:19:58.109Z,99399.53
2023-03-13T04:25:00.930Z,99395.72
2023-03-13T04:30:05.657Z,99385.03
2023-03-13T04:35:21.223Z,99371.59
2023-03-13T04:41:01.038Z,99378.53
2023-03-13T04:46:15.557Z,99373.03
2023-03-13T04:51:35.729Z,99373.88
2023-03-13T04:57:00.258Z,99371.16
2023-03-13T05:02:14.160Z,99374.47
2023-03-13T05:07:41.858Z,99371.22
2023-03-13T05:13:02.676Z,99394.94
2023-03-13T05:18:24.786Z,99417.69
2023-03-13T05:23:56.100Z,99410.69
2023-03-13T05:29:00.498Z,99393.91
2023-03-13T05:34:13.109Z,99394.03
2023-03-13T05:39:42.722Z,99399.34
2023-03-13T05:44:54.743Z,99413.13
2023-03-13T05:50:28.429Z,99398.63
2023-03-13T05:55:55.968Z,99396.50
2023-03-13T06:01:24.229Z,99394.06
2023-03-13T06:06:35.477Z,99389.38
2023-03-13T06:11:40.317Z,99396.00
2023-03-13T06:16:42.092Z,99383.97
2023-03-13T06:21:50.360Z,99377.44
2023-03-13T06:26:52.145Z,99406.56
2023-03-13T06:31:53.813Z,99408.47
2023-03-13T06:36:56.465Z,99401.59
2023-03-13T06:41:58.515Z,99410.94
2023-03-13T06:47:00.061Z,99396.91
2023-03-13T06:52:01.761Z,99416.19
2023-03-13T06:57:03.441Z,99410.47
2023-03-13T07:02:05.127Z,99392.66
2023-03-13T07:07:06.838Z,99394.34
2023-03-13T07:12:08.731Z,99381.50
2023-03-13T07:17:10.354Z,99388.72
2023-03-13T07:22:11.888Z,99382.44
2023-03-13T07:27:32.987Z,99364.09
2023-03-13T07:32:34.669Z,99331.97
2023-03-13T07:37:36.226Z,99325.91
2023-03-13T07:42:40.550Z,99336.41
2023-03-13T07:47:45.072Z,99329.28
2023-03-13T07:52:46.665Z,99322.13
2023-03-13T07:57:48.199Z,99325.44
2023-03-13T08:02:49.722Z,99331.44
2023-03-13T08:07:51.279Z,99330.53
2023-03-13T08:12:53.032Z,99309.53
2023-03-13T08:17:57.810Z,99314.19
2023-03-13T08:22:59.342Z,99307.22
2023-03-13T08:28:03.151Z,99287.84
2023-03-13T08:33:07.432Z,99299.00
2023-03-13T08:38:15.100Z,99292.75
2023-03-13T08:43:16.605Z,99292.78
2023-03-13T08:48:18.262Z,99291.41
2023-03-13T08:53:19.772Z,99290.22
2023-03-13T08:58:21.509Z,99276.88
2023-03-13T09:03:23.171Z,99263.00
2023-03-13T09:08:25.441Z,99257.78
2023-03-13T09:13:28.994Z,99260.84
2023-03-13T09:18:31.172Z,99234.69
2023-03-13T09:23:32.978Z,99228.41
2023-03-13T09:28:39.485Z,99207.06
2023-03-13T09:33:42.659Z,99195.78
2023-03-13T09:38:44.651Z,99187.53
2023-03-13T09:44:09.870Z,99177.16
2023-03-13T09:49:34.950Z,99138.09
2023-03-13T09:54:42.047Z,99141.16
2023-03-13T09:59:57.392Z,99131.03
2023-03-13T10:05:22.327Z,99125.50
2023-03-13T10:10:39.137Z,99108.91
2023-03-13T10:15:56.960Z,99118.34
2023-03-13T10:21:01.758Z,99118.03
2023-03-13T10:26:03.374Z,99113.84
2023-03-13T10:31:23.838Z,99096.13
2023-03-13T10:36:25.461Z,99082.75
2023-03-13T10:41:31.145Z,99048.88
2023-03-13T10:46:36.089Z,99061.19
2023-03-13T10:51:48.939Z,99051.47
2023-03-13T10:56:51.904Z,99073.72
2023-03-13T11:02:01.505Z,99072.31
2023-03-13T11:07:28.745Z,99063.06
2023-03-13T11:12:34.793Z,99053.31
2023-03-13T11:17:39.919Z,99032.91
2023-03-13T11:22:53.550Z,99033.78
2023-03-13T11:28:15.350Z,99024.66
2023-03-13T11:33:28.242Z,99010.41
2023-03-13T11:38:39.993Z,98987.69
2023-03-13T11:44:07.103Z,98976.25
2023-03-13T11:49:29.341Z,98957.50
2023-03-13T11:54:59.657Z,98936.16
2023-03-13T12:00:31.200Z,98907.91
2023-03-13T12:05:46.164Z,98880.91
2023-03-13T12:11:00.405Z,98867.31
2023-03-13T12:16:10.202Z,98834.28
2023-03-13T12:21:23.346Z,98826.34
2023-03-13T12:27:15.479Z,98818.59
2023-03-13T12:32:28.867Z,98825.22
2023-03-13T12:37:47.596Z,98800.88
2023-03-13T12:43:00.653Z,98799.19
2023-03-13T12:48:14.238Z,98790.09
2023-03-13T12:53:42.129Z,98783.16
2023-03-13T12:58:51.880Z,98765.47
2023-03-13T13:04:00.881Z,98724.94
2023-03-13T13:09:27.020Z,98726.63
2023-03-13T13:14:28.505Z,98725.44
2023-03-13T13:19:42.202Z,98709.00
2023-03-13T13:24:52.134Z,98698.16
2023-03-13T13:29:58.597Z,98679.88
2023-03-13T13:35:03.372Z,98667.75
2023-03-13T13:40:24.358Z,98659.03
2023-03-13T13:45:35.192Z,98630.53
2023-03-13T13:50:36.844Z,98624.38
2023-03-13T13:55:43.822Z,98621.53
2023-03-13T14:01:03.696Z,98609.78
2023-03-13T14:06:30.871Z,98588.09
2023-03-13T14:11:39.436Z,98595.88
2023-03-13T14:16:46.302Z,98591.34
2023-03-13T14:21:47.937Z,98574.94
2023-03-13T14:26:49.491Z,98557.06
2023-03-13T14:31:56.910Z,98528.31
2023-03-13T14:37:16.777Z,98528.53
2023-03-13T14:42:19.367Z,98524.00
2023-03-13T14:47:32.178Z,98500.31
2023-03-13T14:52:34.232Z,98490.00
2023-03-13T14:57:36.122Z,98486.44
2023-03-13T15:02:38.767Z,98468.00
2023-03-13T15:07:47.384Z,98452.53
2023-03-13T15:12:49.602Z,98449.13
2023-03-13T15:17:51.126Z,98431.97
2023-03-13T15:22:52.634Z,98429.53
2023-03-13T15:27:54.151Z,98407.78
2023-03-13T15:32:55.718Z,98380.28
2023-03-13T15:37:59.474Z,98346.47
2023-03-13T15:43:01.045Z,98335.22
2023-03-13T15:48:02.863Z,98328.34
2023-03-13T15:53:16.492Z,98316.56
2023-03-13T15:58:18.546Z,98313.50
2023-03-13T16:03:24.680Z,98310.06
2023-03-13T16:08:36.395Z,98305.00
2023-03-13T16:13:38.627Z,98295.25
2023-03-13T16:18:40.140Z,98300.28
2023-03-13T16:23:41.633Z,98281.41
2023-03-13T16:28:43.613Z,98287.94
2023-03-13T16:33:45.578Z,98282.25
2023-03-13T16:38:48.046Z,98276.88
2023-03-13T16:43:50.304Z,98270.22
2023-03-13T16:48:51.863Z,98273.41
2023-03-13T16:53:55.652Z,98273.47
2023-03-13T16:58:58.394Z,98279.03
2023-03-13T17:04:00.372Z,98284.63
2023-03-13T17:09:02.703Z,98311.66
2023-03-13T17:14:04.526Z,98319.69
2023-03-13T17:19:08.880Z,98302.22
2023-03-13T17:24:10.375Z,98334.19
2023-03-13T17:29:18.725Z,98341.19
2023-03-13T17:34:20.271Z,98363.31
2023-03-13T17:39:24.378Z,98379.75
2023-03-13T17:44:25.952Z,98506.44
2023-03-13T17:49:29.505Z,98491.59
2023-03-13T17:54:31.027Z,98539.66
2023-03-13T17:59:32.553Z,98563.66
2023-03-13T18:04:34.069Z,98545.25
2023-03-13T18:09:35.547Z,98553.94
2023-03-13T18:14:37.750Z,98472.09
2023-03-13T18:19:39.247Z,98484.91
2023-03-13T18:24:41.208Z,98443.81
2023-03-13T18:29:43.637Z,98479.59
2023-03-13T18:34:45.582Z,98474.31
2023-03-13T18:39:49.891Z,98495.47
2023-03-13T18:44:51.449Z,98499.06
2023-03-13T18:49:52.968Z,98503.22
2023-03-13T18:54:54.495Z,98518.56
2023-03-13T18:59:56.000Z,98516.41
2023-03-13T19:04:57.500Z,98555.16
2023-03-13T19:09:59.068Z,98554.63
2023-03-13T19:15:00.555Z,98633.41
2023-03-13T19:20:02.123Z,98644.09
2023-03-13T19:25:03.889Z,98698.97
2023-03-13T19:30:14.736Z,98775.59
2023-03-13T19:35:21.722Z,98760.16
2023-03-13T19:40:25.950Z,98782.53
2023-03-13T19:45:27.715Z,98824.69
2023-03-13T19:50:31.028Z,98842.72
2023-03-13T19:55:32.541Z,98824.19
2023-03-13T20:00:37.419Z,98814.13
2023-03-13T20:05:38.918Z,98801.84
2023-03-13T20:10:40.419Z,98791.69
2023-03-13T20:15:42.019Z,98761.84
2023-03-13T20:20:43.655Z,98721.03
2023-03-13T20:25:45.192Z,98692.84
2023-03-13T20:30:48.485Z,98664.94
2023-03-13T20:35:50.041Z,98683.72
2023-03-13T20:40:53.586Z,98679.31
2023-03-13T20:45:55.401Z,98656.88
2023-03-13T20:51:00.059Z,98633.94
2023-03-13T20:56:03.617Z,98581.19
2023-03-13T21:01:07.295Z,98607.38
2023-03-13T21:06:14.971Z,98616.63
2023-03-13T21:11:19.288Z,98597.50
2023-03-13T21:16:20.997Z,98586.81
2023-03-13T21:21:22.604Z,98567.66
2023-03-13T21:26:24.171Z,98573.91
2023-03-13T21:31:28.136Z,98556.72
2023-03-13T21:36:32.863Z,98576.41
2023-03-13T21:41:35.208Z,98580.03
2023-03-13T21:46:36.755Z,98582.06
2023-03-13T21:51:38.281Z,98566.81
2023-03-13T21:56:39.771Z,98542.53
2023-03-13T22:01:42.351Z,98566.06
2023-03-13T22:06:43.903Z,98582.22
2023-03-13T22:11:45.516Z,98603.63
2023-03-13T22:16:48.117Z,98584.25
2023-03-13T22:21:49.686Z,98592.78
2023-03-13T22:26:51.297Z,98588.66
2023-03-13T22:31:52.827Z,98609.75
2023-03-13T22:36:54.432Z,98613.34
2023-03-13T22:41:56.004Z,98644.28
2023-03-13T22:46:57.539Z,98607.84
2023-03-13T22:51:59.367Z,98660.44
2023-03-13T22:57:00.856Z,98708.66
2023-03-13T23:02:02.365Z,98758.28
2023-03-13T23:07:03.937Z,98834.47
2023-03-13T23:12:05.712Z,98856.66
2023-03-13T23:17:07.253Z,98863.75
2023-03-13T23:22:08.892Z,98848.13
2023-03-13T23:27:10.407Z,98855.75
2023-03-13T23:32:11.994Z,98852.72
2023-03-13T23:37:13.486Z,98831.34
2023-03-13T23:42:15.023Z,98801.72
2023-03-13T23:47:16.548Z,98785.03
2023-03-13T23:52:18.124Z,98790.22
2023-03-13T23:57:19.851Z,98777.34
